Main page
METAR-TAF:

METAR-TAF

Airports :

Midland International Air and Space Port

Midland, Texas, United States

latitude: 31-56-52N, longitude: 102-12-31W, elevation: 2870 ft

Current weather observation

The report was made 48 minutes ago, at 11:53 UTC
Wind 5 mph from the Southeast
Temperature 45°F
Humidity 76%
Pressure 30.27 in. Hg
Visibility: 10 miles
Few clouds at a height of 12000 ft

METAR: KMAF 211153Z 13004KT 10SM FEW120 07/03 A3027 RMK AO2 SLP229 T00720033 10089 20056 53002

Time: 07:41 (12:41 UTC)

Forecast

The report was made 1 hour and 21 minutes ago, at 11:20 UTC
Forecast valid from 21 at 12 UTC to 22 at 12 UTC
Wind 7 mph from the Southeast
Visibility: 6 miles
Broken clouds at a height of 3500 ft

TAF: KMAF 211120Z 2112/2212 13006KT P6SM BKN035

Weather observations and forecasts of more than 4000 airports (METAR and TAF reports).

The available stations are represented by yellow and red dots on the map.

Hover mouse over dot to see the name of the station.

Then click to see weather observations and forecasts.

To change the map : click on the green buttons with a black cross to zoom in, on the green button with a dash to zoom out, or on the green arrows for adjacent maps.


METAR-TAF: